createdAt,value
2018-02-09T00:01:23.375Z,102180.33
2018-02-09T00:04:25.346Z,102179.19
2018-02-09T00:07:27.246Z,102174.00
2018-02-09T00:10:29.155Z,102177.47
2018-02-09T00:13:31.139Z,102174.55
2018-02-09T00:16:33.035Z,102165.86
2018-02-09T00:19:34.926Z,102170.69
2018-02-09T00:22:36.823Z,102172.31
2018-02-09T00:25:38.724Z,102169.03
2018-02-09T00:28:40.727Z,102168.59
2018-02-09T00:31:42.634Z,102173.74
2018-02-09T00:34:44.611Z,102174.11
2018-02-09T00:37:46.515Z,102171.48
2018-02-09T00:40:48.411Z,102172.57
2018-02-09T00:43:50.407Z,102167.06
2018-02-09T00:46:52.403Z,102163.47
2018-02-09T00:49:54.402Z,102161.03
2018-02-09T00:52:56.395Z,102158.87
2018-02-09T00:55:58.292Z,102157.97
2018-02-09T00:59:00.287Z,102157.46
2018-02-09T01:02:02.184Z,102157.13
2018-02-09T01:05:04.187Z,102155.68
2018-02-09T01:08:06.195Z,102152.34
2018-02-09T01:11:08.179Z,102153.28
2018-02-09T01:14:10.184Z,102149.97
2018-02-09T01:17:12.171Z,102149.72
2018-02-09T01:20:14.171Z,102150.47
2018-02-09T01:23:16.090Z,102146.77
2018-02-09T01:26:18.071Z,102147.50
2018-02-09T01:29:19.964Z,102148.93
2018-02-09T01:32:21.859Z,102147.50
2018-02-09T01:35:23.754Z,102144.53
2018-02-09T01:38:25.644Z,102144.10
2018-02-09T01:41:27.542Z,102141.12
2018-02-09T01:44:29.436Z,102145.56
2018-02-09T01:47:31.340Z,102143.04
2018-02-09T01:50:33.327Z,102145.46
2018-02-09T01:53:35.224Z,102143.13
2018-02-09T01:56:37.119Z,102145.30
2018-02-09T01:59:39.023Z,102144.12
2018-02-09T02:02:41.010Z,102145.02
2018-02-09T02:05:43.018Z,102138.59
2018-02-09T02:08:44.924Z,102133.64
2018-02-09T02:11:46.804Z,102134.07
2018-02-09T02:14:48.702Z,102132.36
2018-02-09T02:17:50.699Z,102125.77
2018-02-09T02:20:52.711Z,102127.20
2018-02-09T02:23:54.690Z,102122.94
2018-02-09T02:26:56.690Z,102120.91
2018-02-09T02:29:58.701Z,102116.85
2018-02-09T02:33:00.690Z,102119.07
2018-02-09T02:36:02.619Z,102110.97
2018-02-09T02:39:04.574Z,102108.28
2018-02-09T02:42:06.467Z,102105.00
2018-02-09T02:45:08.366Z,102099.93
2018-02-09T02:48:10.259Z,102099.58
2018-02-09T02:51:12.174Z,102088.53
2018-02-09T02:54:14.369Z,102087.42
2018-02-09T02:57:16.359Z,102089.49
2018-02-09T03:00:18.365Z,102088.25
2018-02-09T03:03:20.246Z,102091.74
2018-02-09T03:06:22.147Z,102088.73
2018-02-09T03:09:24.058Z,102087.77
2018-02-09T03:12:26.048Z,102089.93
2018-02-09T03:15:28.039Z,102083.87
2018-02-09T03:18:29.926Z,102081.26
2018-02-09T03:21:31.847Z,102079.76
2018-02-09T03:24:33.836Z,102071.94
2018-02-09T03:27:35.731Z,102071.39
2018-02-09T03:30:37.734Z,102074.46
2018-02-09T03:33:39.626Z,102075.28
2018-02-09T03:36:41.619Z,102074.35
2018-02-09T03:39:43.619Z,102072.23
2018-02-09T03:42:45.528Z,102069.55
2018-02-09T03:45:47.510Z,102073.33
2018-02-09T03:48:49.515Z,102072.56
2018-02-09T03:51:51.515Z,102071.01
2018-02-09T03:54:53.503Z,102071.75
2018-02-09T03:57:55.399Z,102077.78
2018-02-09T04:00:57.398Z,102069.87
2018-02-09T04:03:59.507Z,102073.06
2018-02-09T04:07:01.503Z,102068.81
2018-02-09T04:10:03.495Z,102071.55
2018-02-09T04:13:05.387Z,102067.12
2018-02-09T04:16:07.289Z,102070.22
2018-02-09T04:19:09.187Z,102067.82
2018-02-09T04:22:11.175Z,102065.90
2018-02-09T04:25:13.086Z,102066.99
2018-02-09T04:28:15.084Z,102059.41
2018-02-09T04:31:17.071Z,102060.75
2018-02-09T04:34:19.071Z,102056.67
2018-02-09T04:37:21.030Z,102053.33
2018-02-09T04:40:22.975Z,102057.68
2018-02-09T04:43:24.971Z,102055.84
2018-02-09T04:46:26.962Z,102054.42
2018-02-09T04:49:28.960Z,102050.40
2018-02-09T04:52:30.950Z,102052.75
2018-02-09T04:55:32.855Z,102051.65
2018-02-09T04:58:34.750Z,102053.07
2018-02-09T05:01:36.647Z,102049.66
2018-02-09T05:04:38.639Z,102046.21
2018-02-09T05:07:40.631Z,102045.78
2018-02-09T05:10:42.540Z,102035.39
2018-02-09T05:13:44.435Z,102039.82
2018-02-09T05:16:46.663Z,102035.56
2018-02-09T05:19:48.634Z,102030.32
2018-02-09T05:22:50.546Z,102032.96
2018-02-09T05:25:52.438Z,102035.47
2018-02-09T05:28:54.495Z,102034.71
2018-02-09T05:31:56.455Z,102041.20
2018-02-09T05:34:58.439Z,102032.24
2018-02-09T05:38:00.443Z,102032.59
2018-02-09T05:41:02.346Z,102026.48
2018-02-09T05:44:04.335Z,102019.97
2018-02-09T05:47:06.314Z,102021.72
2018-02-09T05:50:08.223Z,102013.26
2018-02-09T05:53:10.220Z,102013.61
2018-02-09T05:56:12.128Z,102009.35
2018-02-09T05:59:14.020Z,102009.84
2018-02-09T06:02:15.927Z,102007.86
2018-02-09T06:05:17.906Z,102004.32
2018-02-09T06:08:20.069Z,101997.64
2018-02-09T06:11:21.926Z,101997.11
2018-02-09T06:14:23.851Z,101999.54
2018-02-09T06:17:25.735Z,101990.73
2018-02-09T06:20:27.642Z,101992.45
2018-02-09T06:23:29.770Z,101991.65
2018-02-09T06:26:31.743Z,101990.66
2018-02-09T06:29:33.618Z,101987.71
2018-02-09T06:32:35.494Z,101984.58
2018-02-09T06:35:37.387Z,101983.67
2018-02-09T06:38:39.280Z,101984.21
2018-02-09T06:41:41.149Z,101988.68
2018-02-09T06:44:43.031Z,101991.25
2018-02-09T06:47:44.923Z,101984.89
2018-02-09T06:50:46.807Z,101983.43
2018-02-09T06:53:48.694Z,101984.08
2018-02-09T06:56:50.564Z,101987.48
2018-02-09T06:59:52.635Z,101985.06
2018-02-09T07:02:54.514Z,101983.21
2018-02-09T07:05:56.406Z,101985.13
2018-02-09T07:08:58.282Z,101987.05
2018-02-09T07:12:00.176Z,101983.83
2018-02-09T07:15:02.064Z,101984.60
2018-02-09T07:18:03.946Z,101983.63
2018-02-09T07:21:05.851Z,101981.97
2018-02-09T07:24:07.748Z,101979.18
2018-02-09T07:27:09.642Z,101977.35
2018-02-09T07:30:11.631Z,101978.87
2018-02-09T07:33:13.519Z,101976.52
2018-02-09T07:36:15.407Z,101978.55
2018-02-09T07:39:17.294Z,101975.27
2018-02-09T07:42:19.195Z,101973.69
2018-02-09T07:45:22.006Z,101973.36
2018-02-09T07:48:23.887Z,101972.85
2018-02-09T07:51:25.799Z,101970.69
2018-02-09T07:54:27.675Z,101965.55
2018-02-09T07:57:29.554Z,101965.11
2018-02-09T08:00:31.444Z,101963.51
2018-02-09T08:03:33.339Z,101963.44
2018-02-09T08:06:35.234Z,101959.73
2018-02-09T08:09:37.110Z,101963.96
2018-02-09T08:12:38.999Z,101962.71
2018-02-09T08:15:40.883Z,101960.48
2018-02-09T08:18:42.770Z,101962.17
2018-02-09T08:21:44.655Z,101956.39
2018-02-09T08:24:46.555Z,101953.55
2018-02-09T08:27:48.435Z,101950.29
2018-02-09T08:30:50.331Z,101947.21
2018-02-09T08:33:52.219Z,101945.88
2018-02-09T08:36:54.113Z,101944.23
2018-02-09T08:39:55.987Z,101945.33
2018-02-09T08:42:58.092Z,101939.96
2018-02-09T08:45:59.984Z,101941.22
2018-02-09T08:49:01.874Z,101941.43
2018-02-09T08:52:03.775Z,101938.89
2018-02-09T08:55:05.660Z,101940.25
2018-02-09T08:58:07.568Z,101939.94
2018-02-09T09:01:09.460Z,101935.87
2018-02-09T09:04:11.379Z,101939.20
2018-02-09T09:07:13.263Z,101929.76
2018-02-09T09:10:15.151Z,101932.52
2018-02-09T09:13:17.044Z,101926.98
2018-02-09T09:16:18.934Z,101924.95
2018-02-09T09:19:20.815Z,101926.44
2018-02-09T09:22:22.690Z,101923.52
2018-02-09T09:25:24.570Z,101918.97
2018-02-09T09:28:26.474Z,101922.74
2018-02-09T09:31:28.373Z,101922.76
2018-02-09T09:34:30.259Z,101912.28
2018-02-09T09:37:32.128Z,101908.23
2018-02-09T09:40:34.052Z,101909.00
2018-02-09T09:43:35.935Z,101904.37
2018-02-09T09:46:37.811Z,101900.32
2018-02-09T09:49:39.690Z,101900.20
2018-02-09T09:52:42.463Z,101897.45
2018-02-09T09:55:44.393Z,101893.97
2018-02-09T09:58:46.240Z,101891.10
2018-02-09T10:01:48.111Z,101890.25
2018-02-09T10:04:50.015Z,101887.23
2018-02-09T10:07:51.895Z,101891.94
2018-02-09T10:10:53.789Z,101888.87
2018-02-09T10:13:55.679Z,101890.96
2018-02-09T10:16:57.563Z,101889.28
2018-02-09T10:19:59.451Z,101881.77
2018-02-09T10:23:01.335Z,101885.15
2018-02-09T10:26:03.216Z,101880.76
2018-02-09T10:29:05.119Z,101876.95
2018-02-09T10:32:06.991Z,101877.70
2018-02-09T10:35:08.907Z,101873.55
2018-02-09T10:38:10.792Z,101869.16
2018-02-09T10:41:12.695Z,101864.70
2018-02-09T10:44:14.595Z,101862.85
2018-02-09T10:47:16.488Z,101861.50
2018-02-09T10:50:18.387Z,101855.92
2018-02-09T10:53:20.282Z,101854.43
2018-02-09T10:56:22.163Z,101856.38
2018-02-09T10:59:24.055Z,101850.74
2018-02-09T11:02:25.937Z,101843.57
2018-02-09T11:05:27.821Z,101840.11
2018-02-09T11:08:29.711Z,101838.51
2018-02-09T11:11:31.622Z,101833.60
2018-02-09T11:14:33.514Z,101829.05
2018-02-09T11:17:35.398Z,101822.45
2018-02-09T11:20:37.281Z,101818.03
2018-02-09T11:23:39.162Z,101820.12
2018-02-09T11:26:41.051Z,101809.32
2018-02-09T11:29:42.948Z,101812.31
2018-02-09T11:32:44.819Z,101812.66
2018-02-09T11:35:46.710Z,101812.69
2018-02-09T11:38:48.587Z,101805.22
2018-02-09T11:41:50.466Z,101793.90
2018-02-09T11:44:52.352Z,101787.34
2018-02-09T11:47:54.247Z,101786.74
2018-02-09T11:50:56.123Z,101781.96
2018-02-09T11:53:57.994Z,101781.20
2018-02-09T11:56:59.885Z,101776.58
2018-02-09T12:00:01.776Z,101775.04
2018-02-09T12:03:03.663Z,101770.90
2018-02-09T12:06:05.579Z,101766.09
2018-02-09T12:09:07.463Z,101761.54
2018-02-09T12:12:09.363Z,101759.54
2018-02-09T12:15:11.648Z,101750.90
2018-02-09T12:18:13.514Z,101746.71
2018-02-09T12:21:15.391Z,101742.44
2018-02-09T12:24:17.356Z,101735.02
2018-02-09T12:27:19.227Z,101728.61
2018-02-09T12:30:21.151Z,101729.62
2018-02-09T12:33:23.031Z,101724.86
2018-02-09T12:36:24.924Z,101724.42
2018-02-09T12:39:26.802Z,101721.39
2018-02-09T12:42:28.693Z,101720.37
2018-02-09T12:45:30.579Z,101718.16
2018-02-09T12:48:32.460Z,101716.91
2018-02-09T12:51:34.407Z,101715.66
2018-02-09T12:54:36.377Z,101709.76
2018-02-09T12:57:38.260Z,101713.47
2018-02-09T13:00:40.232Z,101703.55
2018-02-09T13:03:42.056Z,101700.85
2018-02-09T13:06:43.955Z,101697.97
2018-02-09T13:09:45.845Z,101694.11
2018-02-09T13:12:47.732Z,101694.71
2018-02-09T13:15:49.623Z,101690.81
2018-02-09T13:18:51.675Z,101689.10
2018-02-09T13:21:53.595Z,101682.82
2018-02-09T13:24:55.472Z,101681.35
2018-02-09T13:27:57.386Z,101682.08
2018-02-09T13:30:59.282Z,101676.28
2018-02-09T13:34:01.159Z,101677.98
2018-02-09T13:37:03.053Z,101677.44
2018-02-09T13:40:04.969Z,101676.53
2018-02-09T13:43:06.846Z,101680.05
2018-02-09T13:46:08.733Z,101679.49
2018-02-09T13:49:10.606Z,101677.54
2018-02-09T13:52:12.496Z,101676.13
2018-02-09T13:55:14.375Z,101674.63
2018-02-09T13:58:16.276Z,101672.83
2018-02-09T14:01:18.151Z,101674.52
2018-02-09T14:04:20.071Z,101669.95
2018-02-09T14:07:21.955Z,101669.05
2018-02-09T14:10:23.842Z,101665.95
2018-02-09T14:13:25.767Z,101661.13
2018-02-09T14:16:27.648Z,101664.46
2018-02-09T14:19:29.541Z,101665.05
2018-02-09T14:22:31.437Z,101660.78
2018-02-09T14:25:33.307Z,101665.16
2018-02-09T14:28:35.202Z,101660.15
2018-02-09T14:31:37.067Z,101664.79
2018-02-09T14:34:38.976Z,101656.45
2018-02-09T14:37:40.889Z,101658.30
2018-02-09T14:40:42.744Z,101661.39
2018-02-09T14:43:44.627Z,101661.92
2018-02-09T14:46:46.516Z,101665.72
2018-02-09T14:49:48.411Z,101664.52
2018-02-09T14:52:50.302Z,101662.84
2018-02-09T14:55:52.198Z,101663.08
2018-02-09T14:58:54.067Z,101655.18
2018-02-09T15:01:55.947Z,101656.62
2018-02-09T15:04:57.839Z,101653.06
2018-02-09T15:07:59.734Z,101649.20
2018-02-09T15:11:01.625Z,101650.11
2018-02-09T15:14:03.567Z,101653.83
2018-02-09T15:17:05.463Z,101657.19
2018-02-09T15:20:07.346Z,101653.54
2018-02-09T15:23:09.235Z,101652.09
2018-02-09T15:26:11.118Z,101647.10
2018-02-09T15:29:13.015Z,101648.63
2018-02-09T15:32:14.902Z,101648.96
2018-02-09T15:35:16.796Z,101652.61
2018-02-09T15:38:18.683Z,101655.73
2018-02-09T15:41:20.569Z,101652.06
2018-02-09T15:44:22.459Z,101649.98
2018-02-09T15:47:24.344Z,101652.05
2018-02-09T15:50:26.223Z,101654.41
2018-02-09T15:53:28.129Z,101657.97
2018-02-09T15:56:30.115Z,101663.18
2018-02-09T15:59:32.029Z,101659.68
2018-02-09T16:02:33.910Z,101666.23
2018-02-09T16:05:35.811Z,101664.49
2018-02-09T16:08:37.702Z,101663.28
2018-02-09T16:11:39.596Z,101665.03
2018-02-09T16:14:41.475Z,101668.08
2018-02-09T16:17:43.367Z,101666.54
2018-02-09T16:20:45.279Z,101665.56
2018-02-09T16:23:47.160Z,101669.67
2018-02-09T16:26:49.069Z,101668.90
2018-02-09T16:29:50.928Z,101664.05
2018-02-09T16:32:52.822Z,101672.13
2018-02-09T16:35:54.863Z,101675.01
2018-02-09T16:38:57.138Z,101675.51
2018-02-09T16:41:59.505Z,101681.75
2018-02-09T16:45:01.833Z,101676.18
2018-02-09T16:48:04.241Z,101676.35
2018-02-09T16:51:06.492Z,101678.11
2018-02-09T16:54:09.214Z,101675.51
2018-02-09T16:57:11.089Z,101679.22
2018-02-09T17:00:12.966Z,101675.96
2018-02-09T17:03:14.842Z,101677.97
2018-02-09T17:06:17.054Z,101679.45
2018-02-09T17:09:18.932Z,101681.01
2018-02-09T17:12:20.811Z,101687.13
2018-02-09T17:15:22.709Z,101689.95
2018-02-09T17:18:24.595Z,101689.71
2018-02-09T17:21:26.511Z,101688.09
2018-02-09T17:24:28.396Z,101688.45
2018-02-09T17:27:30.290Z,101685.41
2018-02-09T17:30:32.223Z,101689.45
2018-02-09T17:33:34.132Z,101690.37
2018-02-09T17:36:36.099Z,101691.97
2018-02-09T17:39:37.975Z,101691.74
2018-02-09T17:42:39.878Z,101691.73
2018-02-09T17:45:41.759Z,101691.62
2018-02-09T17:48:43.639Z,101691.05
2018-02-09T17:51:45.531Z,101693.31
2018-02-09T17:54:47.410Z,101698.79
2018-02-09T17:57:49.615Z,101700.24
2018-02-09T18:00:51.526Z,101707.00
2018-02-09T18:03:53.402Z,101705.01
2018-02-09T18:06:55.299Z,101700.14
2018-02-09T18:09:57.180Z,101710.22
2018-02-09T18:12:59.083Z,101711.23
2018-02-09T18:16:00.962Z,101711.32
2018-02-09T18:19:02.850Z,101710.31
2018-02-09T18:22:04.739Z,101709.64
2018-02-09T18:25:06.614Z,101711.48
2018-02-09T18:28:08.511Z,101711.49
2018-02-09T18:31:10.532Z,101713.09
2018-02-09T18:34:12.528Z,101713.01
2018-02-09T18:37:14.528Z,101705.38
2018-02-09T18:40:16.427Z,101709.53
2018-02-09T18:43:18.351Z,101702.70
2018-02-09T18:46:21.787Z,101690.97
2018-02-09T18:49:23.760Z,101695.48
2018-02-09T18:52:25.672Z,101699.39
2018-02-09T18:55:27.551Z,101698.58
2018-02-09T18:58:29.455Z,101698.58
2018-02-09T19:01:31.454Z,101698.20
2018-02-09T19:04:33.337Z,101701.34
2018-02-09T19:07:35.263Z,101701.70
2018-02-09T19:10:37.160Z,101704.62
2018-02-09T19:13:39.154Z,101707.86
2018-02-09T19:16:41.176Z,101706.41
2018-02-09T19:19:43.994Z,101710.70
2018-02-09T19:22:45.971Z,101708.01
2018-02-09T19:25:48.001Z,101706.16
2018-02-09T19:28:49.962Z,101707.33
2018-02-09T19:31:51.879Z,101707.28
2018-02-09T19:34:53.866Z,101713.01
2018-02-09T19:37:55.779Z,101710.38
2018-02-09T19:40:57.655Z,101713.92
2018-02-09T19:43:59.555Z,101709.91
2018-02-09T19:47:01.456Z,101712.71
2018-02-09T19:50:03.363Z,101717.39
2018-02-09T19:53:05.258Z,101716.38
2018-02-09T19:56:07.147Z,101720.67
2018-02-09T19:59:09.055Z,101721.52
2018-02-09T20:02:11.056Z,101721.24
2018-02-09T20:05:13.303Z,101723.10
2018-02-09T20:08:15.263Z,101724.59
2018-02-09T20:11:17.262Z,101728.40
2018-02-09T20:14:19.259Z,101730.65
2018-02-09T20:17:21.484Z,101719.06
2018-02-09T20:20:23.468Z,101721.85
2018-02-09T20:23:25.467Z,101721.90
2018-02-09T20:26:27.343Z,101722.91
2018-02-09T20:29:29.259Z,101724.95
2018-02-09T20:32:31.155Z,101727.92
2018-02-09T20:35:33.151Z,101735.05
2018-02-09T20:38:35.159Z,101723.06
2018-02-09T20:41:37.051Z,101724.58
2018-02-09T20:44:39.047Z,101726.98
2018-02-09T20:47:40.931Z,101722.88
2018-02-09T20:50:42.875Z,101722.40
2018-02-09T20:53:44.867Z,101727.90
2018-02-09T20:56:46.846Z,101732.38
2018-02-09T20:59:48.739Z,101729.49
2018-02-09T21:02:50.610Z,101732.52
2018-02-09T21:05:52.497Z,101734.04
2018-02-09T21:08:54.383Z,101739.74
2018-02-09T21:11:56.262Z,101739.45
2018-02-09T21:14:58.144Z,101738.11
2018-02-09T21:18:00.029Z,101737.16
2018-02-09T21:21:01.906Z,101739.27
2018-02-09T21:24:03.812Z,101739.35
2018-02-09T21:27:05.703Z,101741.51
2018-02-09T21:30:07.595Z,101747.08
2018-02-09T21:33:09.487Z,101752.38
2018-02-09T21:36:11.363Z,101749.56
2018-02-09T21:39:13.250Z,101756.63
2018-02-09T21:42:15.131Z,101754.93
2018-02-09T21:45:17.007Z,101754.52
2018-02-09T21:48:18.887Z,101757.45
2018-02-09T21:51:20.774Z,101757.65
2018-02-09T21:54:22.655Z,101757.96
2018-02-09T21:57:24.595Z,101756.74
2018-02-09T22:00:26.476Z,101755.50
2018-02-09T22:03:28.370Z,101755.96
2018-02-09T22:06:30.259Z,101748.97
2018-02-09T22:09:32.137Z,101751.42
2018-02-09T22:12:34.014Z,101753.22
2018-02-09T22:15:35.902Z,101759.57
2018-02-09T22:18:37.839Z,101763.08
2018-02-09T22:21:39.971Z,101768.65
2018-02-09T22:24:42.488Z,101765.73
2018-02-09T22:27:44.543Z,101771.09
2018-02-09T22:30:46.426Z,101772.14
2018-02-09T22:33:48.558Z,101774.14
2018-02-09T22:36:50.554Z,101772.29
2018-02-09T22:39:52.444Z,101772.79
2018-02-09T22:42:54.557Z,101769.06
2018-02-09T22:45:56.438Z,101768.65
2018-02-09T22:48:58.339Z,101771.97
2018-02-09T22:52:00.223Z,101767.49
2018-02-09T22:55:02.106Z,101766.37
2018-02-09T22:58:04.190Z,101764.86
2018-02-09T23:01:06.079Z,101762.60
2018-02-09T23:04:07.959Z,101762.27
2018-02-09T23:07:09.855Z,101765.99
2018-02-09T23:10:11.738Z,101766.26
2018-02-09T23:13:13.627Z,101768.95
2018-02-09T23:16:15.499Z,101769.94
2018-02-09T23:19:17.406Z,101765.93
2018-02-09T23:22:19.295Z,101772.55
2018-02-09T23:25:21.163Z,101774.36
2018-02-09T23:28:23.051Z,101771.40
2018-02-09T23:31:24.931Z,101772.92
2018-02-09T23:34:26.813Z,101772.94
2018-02-09T23:37:28.698Z,101769.03
2018-02-09T23:40:30.571Z,101768.33
2018-02-09T23:43:32.451Z,101773.62
2018-02-09T23:46:34.343Z,101771.89
2018-02-09T23:49:36.232Z,101776.43
2018-02-09T23:52:38.111Z,101773.98
2018-02-09T23:55:40.011Z,101783.65
2018-02-09T23:58:41.913Z,101783.06
